Time;durP1;ratioP1;P1;durP2;ratioP2;P2;SDS_P1;SDS_P2;PMS_P1;PMS_P2;Temp;Humidity;BMP_temperature;BMP_pressure;BME280_temperature;BME280_humidity;BME280_pressure;Samples;Min_cycle;Max_cycle;Signal;HPM_P1;HPM_P2
2024/02/08 00:00:08;;;;;;;1.08;0.55;;;15.80;92.90;;;;;;5011509;28;20030;-44
2024/02/08 00:02:34;;;;;;;0.75;0.50;;;15.80;92.90;;;;;;5011484;28;20037;-44
2024/02/08 00:05:00;;;;;;;1.17;0.50;;;15.80;92.90;;;;;;5001480;28;20037;-45
2024/02/08 00:07:25;;;;;;;0.98;0.45;;;15.80;92.90;;;;;;5010146;28;20030;-44
2024/02/08 00:09:51;;;;;;;1.40;0.38;;;15.80;92.90;;;;;;5011415;28;20475;-44
2024/02/08 00:12:18;;;;;;;0.38;0.32;;;15.80;93.00;;;;;;5011492;28;20022;-44
2024/02/08 00:14:43;;;;;;;0.50;0.40;;;15.80;93.00;;;;;;5011125;28;20022;-42
2024/02/08 00:17:09;;;;;;;0.68;0.30;;;15.70;92.90;;;;;;5011367;28;20468;-44
2024/02/08 00:19:34;;;;;;;0.80;0.50;;;15.70;92.90;;;;;;5011271;28;20034;-45
2024/02/08 00:22:00;;;;;;;0.50;0.35;;;15.80;93.00;;;;;;5011464;28;20033;-43
2024/02/08 00:24:26;;;;;;;0.65;0.30;;;15.70;93.00;;;;;;5011185;28;20076;-45
2024/02/08 00:26:51;;;;;;;1.13;0.40;;;15.80;93.00;;;;;;5011336;28;20221;-45
2024/02/08 00:29:17;;;;;;;1.50;0.40;;;15.70;93.00;;;;;;5011100;28;20030;-44
2024/02/08 00:31:43;;;;;;;0.50;0.30;;;15.80;93.00;;;;;;5011414;28;20386;-43
2024/02/08 00:34:09;;;;;;;0.50;0.22;;;15.70;93.00;;;;;;5011178;28;20072;-44
2024/02/08 00:36:34;;;;;;;0.60;0.30;;;15.80;93.00;;;;;;5014324;28;20026;-44
2024/02/08 00:39:06;;;;;;;0.80;0.50;;;15.80;93.00;;;;;;5015499;28;20038;-44
2024/02/08 00:41:32;;;;;;;0.55;0.30;;;15.80;93.00;;;;;;5014992;28;20029;-44
2024/02/08 00:43:58;;;;;;;0.30;0.20;;;15.80;93.00;;;;;;5014667;28;20026;-45
2024/02/08 00:46:24;;;;;;;0.50;0.30;;;15.80;93.00;;;;;;5014543;28;20049;-45
2024/02/08 00:48:49;;;;;;;0.63;0.30;;;15.70;93.40;;;;;;5013409;28;20045;-45
2024/02/08 00:51:16;;;;;;;1.48;0.35;;;15.80;93.00;;;;;;5014923;28;20025;-45
2024/02/08 00:53:43;;;;;;;0.55;0.30;;;15.70;93.00;;;;;;5014551;28;20036;-45
2024/02/08 00:56:12;;;;;;;0.50;0.32;;;15.80;93.10;;;;;;5014408;28;20366;-45
2024/02/08 00:58:38;;;;;;;0.38;0.30;;;15.70;93.10;;;;;;5015273;28;20130;-44
2024/02/08 01:01:07;;;;;;;0.25;0.22;;;15.80;93.10;;;;;;5015494;28;20152;-44
2024/02/08 01:03:35;;;;;;;1.40;0.30;;;15.80;93.10;;;;;;5015964;28;20099;-44
2024/02/08 01:06:02;;;;;;;0.50;0.30;;;15.70;93.10;;;;;;5015068;28;20488;-45
2024/02/08 01:08:28;;;;;;;0.30;0.28;;;15.70;93.10;;;;;;5014342;28;20038;-44
2024/02/08 01:10:54;;;;;;;1.10;0.30;;;15.70;93.10;;;;;;5014030;28;20026;-45
2024/02/08 01:13:21;;;;;;;0.50;0.40;;;15.70;93.10;;;;;;5014821;28;20036;-45
2024/02/08 01:15:49;;;;;;;0.38;0.20;;;15.70;93.10;;;;;;5014364;28;20350;-44
2024/02/08 01:18:17;;;;;;;0.30;0.25;;;15.70;93.10;;;;;;5013904;28;20364;-44
2024/02/08 01:20:43;;;;;;;0.60;0.28;;;15.70;93.10;;;;;;5013926;28;20110;-45
2024/02/08 01:23:09;;;;;;;0.22;0.17;;;15.70;93.10;;;;;;5013835;28;20032;-45
2024/02/08 01:25:35;;;;;;;0.80;0.40;;;15.70;93.10;;;;;;5013603;28;20202;-45
2024/02/08 01:28:01;;;;;;;0.45;0.40;;;15.70;93.10;;;;;;5013821;28;20030;-45
2024/02/08 01:30:26;;;;;;;1.02;0.40;;;15.70;93.10;;;;;;5013809;28;20033;-45
2024/02/08 01:32:53;;;;;;;0.40;0.30;;;15.70;93.10;;;;;;5014091;28;20040;-45
2024/02/08 01:35:21;;;;;;;0.20;0.10;;;15.70;93.10;;;;;;5014404;28;20053;-45
2024/02/08 01:37:48;;;;;;;0.50;0.28;;;15.70;93.10;;;;;;5013388;28;20105;-44
2024/02/08 01:40:16;;;;;;;0.30;0.20;;;15.60;93.10;;;;;;5013521;28;20030;-45
2024/02/08 01:42:48;;;;;;;0.75;0.30;;;15.60;93.10;;;;;;5013604;28;20038;-45
2024/02/08 01:45:37;;;;;;;0.52;0.30;;;15.50;93.10;;;;;;5014148;28;20026;-43
2024/02/08 01:48:10;;;;;;;0.20;0.10;;;15.50;93.10;;;;;;5012351;28;20116;-45
2024/02/08 01:50:40;;;;;;;0.25;0.20;;;15.40;93.10;;;;;;5013359;28;20109;-44
2024/02/08 01:53:13;;;;;;;0.20;0.20;;;15.40;93.20;;;;;;5013344;28;20026;-44
2024/02/08 01:55:40;;;;;;;0.20;0.20;;;15.30;93.30;;;;;;5013411;28;20420;-45
2024/02/08 01:58:07;;;;;;;0.30;0.20;;;15.30;93.40;;;;;;5013253;28;20360;-44
2024/02/08 02:00:36;;;;;;;0.98;0.22;;;15.10;93.40;;;;;;5013208;28;20037;-44
2024/02/08 02:03:04;;;;;;;0.30;0.30;;;15.10;93.50;;;;;;5013150;28;20033;-45
2024/02/08 02:05:29;;;;;;;0.30;0.20;;;15.00;93.60;;;;;;5013354;28;20030;-43
2024/02/08 02:07:57;;;;;;;0.52;0.28;;;14.90;93.70;;;;;;5013066;28;20084;-45
2024/02/08 02:10:29;;;;;;;0.30;0.25;;;14.80;93.80;;;;;;5013142;28;20029;-43
2024/02/08 02:13:00;;;;;;;0.38;0.30;;;14.70;93.90;;;;;;5013062;28;20125;-44
2024/02/08 02:15:31;;;;;;;0.22;0.20;;;14.70;94.00;;;;;;5012653;28;20057;-43
2024/02/08 02:18:01;;;;;;;0.20;0.20;;;14.60;94.10;;;;;;5012924;28;20029;-44
2024/02/08 02:20:29;;;;;;;0.22;0.20;;;14.50;94.20;;;;;;5012773;28;20018;-43
2024/02/08 02:23:03;;;;;;;0.17;0.10;;;14.40;94.30;;;;;;5013750;28;20079;-44
2024/02/08 02:25:32;;;;;;;0.35;0.20;;;14.40;94.40;;;;;;5012784;28;20041;-45
2024/02/08 02:28:00;;;;;;;0.40;0.20;;;14.30;94.60;;;;;;5012953;28;20077;-42
2024/02/08 02:30:27;;;;;;;0.30;0.22;;;14.20;94.70;;;;;;5013136;28;20069;-45
2024/02/08 02:32:55;;;;;;;0.38;0.20;;;14.10;94.80;;;;;;5012629;28;20485;-44
2024/02/08 02:35:22;;;;;;;0.35;0.15;;;14.00;94.80;;;;;;5012816;28;20026;-45
2024/02/08 02:37:51;;;;;;;0.28;0.15;;;14.00;95.00;;;;;;5012357;28;20037;-44
2024/02/08 02:40:23;;;;;;;0.22;0.20;;;13.90;95.10;;;;;;5012321;28;20429;-43
2024/02/08 02:42:51;;;;;;;0.20;0.20;;;13.90;95.20;;;;;;5013084;28;20052;-44
2024/02/08 02:45:21;;;;;;;0.28;0.20;;;13.80;95.30;;;;;;5013512;28;20499;-45
2024/02/08 02:47:53;;;;;;;0.20;0.20;;;13.70;95.40;;;;;;5012510;28;20046;-44
2024/02/08 02:50:20;;;;;;;0.32;0.20;;;13.70;95.80;;;;;;5012275;28;20014;-42
2024/02/08 02:52:46;;;;;;;0.00;0.00;;;13.60;95.50;;;;;;5012377;28;20481;-43
2024/02/08 02:55:12;;;;;;;0.50;0.20;;;13.60;95.60;;;;;;5012454;28;20026;-44
2024/02/08 02:57:41;;;;;;;0.30;0.20;;;13.50;95.70;;;;;;5012697;28;20034;-44
2024/02/08 03:00:20;;;;;;;0.30;0.20;;;13.50;95.80;;;;;;5012068;28;20553;-45
2024/02/08 03:02:50;;;;;;;0.30;0.20;;;13.40;95.90;;;;;;5012123;28;20030;-44
2024/02/08 03:05:22;;;;;;;0.10;0.10;;;13.40;96.00;;;;;;5011901;28;20384;-44
2024/02/08 03:07:51;;;;;;;0.30;0.28;;;13.30;96.10;;;;;;5012031;28;20095;-45
2024/02/08 03:10:19;;;;;;;0.60;0.35;;;13.30;96.10;;;;;;5011944;28;20026;-45
2024/02/08 03:12:50;;;;;;;0.30;0.22;;;13.20;96.20;;;;;;5011949;28;20041;-45
2024/02/08 03:15:16;;;;;;;0.20;0.20;;;13.20;96.30;;;;;;5011709;28;20086;-45
2024/02/08 03:17:46;;;;;;;0.32;0.20;;;13.10;96.40;;;;;;5011753;28;20022;-44
2024/02/08 03:20:17;;;;;;;0.55;0.30;;;13.10;96.50;;;;;;5011818;28;20026;-45
2024/02/08 03:22:46;;;;;;;0.32;0.20;;;13.00;96.50;;;;;;5011906;28;20046;-45
2024/02/08 03:25:14;;;;;;;0.20;0.20;;;13.00;96.60;;;;;;5011762;28;20068;-44
2024/02/08 03:27:43;;;;;;;1.65;0.20;;;12.90;96.70;;;;;;5011976;28;20052;-45
2024/02/08 03:30:30;;;;;;;0.45;0.20;;;12.90;96.80;;;;;;5011747;28;20033;-44
2024/02/08 03:32:57;;;;;;;0.50;0.30;;;12.80;96.80;;;;;;5011692;28;20036;-44
2024/02/08 03:35:27;;;;;;;0.30;0.20;;;12.80;97.00;;;;;;5010174;28;20030;-45
2024/02/08 03:38:00;;;;;;;0.20;0.20;;;12.80;97.00;;;;;;5011352;28;20026;-44
2024/02/08 03:40:31;;;;;;;0.10;0.10;;;12.70;97.00;;;;;;5011661;28;20026;-45
2024/02/08 03:42:57;;;;;;;0.20;0.20;;;12.70;97.10;;;;;;5012697;28;20029;-45
2024/02/08 03:45:23;;;;;;;0.40;0.20;;;12.70;97.20;;;;;;5011369;28;20037;-43
2024/02/08 03:47:52;;;;;;;0.10;0.10;;;12.60;97.40;;;;;;5011271;28;20044;-45
2024/02/08 03:50:24;;;;;;;0.08;0.08;;;12.60;97.60;;;;;;5010125;28;20030;-45
2024/02/08 03:52:51;;;;;;;0.05;0.05;;;12.60;97.30;;;;;;5012758;28;20025;-45
2024/02/08 03:55:17;;;;;;;0.20;0.10;;;12.50;97.40;;;;;;5011983;28;20029;-45
2024/02/08 03:57:48;;;;;;;0.22;0.20;;;12.50;97.50;;;;;;5011219;28;20018;-45
2024/02/08 04:00:22;;;;;;;0.25;0.10;;;12.50;97.50;;;;;;5011632;28;20484;-45
2024/02/08 04:02:48;;;;;;;0.35;0.08;;;12.40;97.60;;;;;;5010054;28;20032;-45
2024/02/08 04:05:36;;;;;;;0.20;0.20;;;12.40;97.60;;;;;;5011265;28;20030;-42
2024/02/08 04:08:22;;;;;;;0.10;0.00;;;12.40;97.70;;;;;;5011314;28;20033;-45
2024/02/08 04:54:16;;;;;;;0.10;0.10;;;11.90;98.50;;;;;;5014594;28;20036;-44
2024/02/08 04:56:43;;;;;;;0.20;0.10;;;11.90;98.60;;;;;;5014198;28;20026;-45
2024/02/08 04:59:08;;;;;;;0.20;0.13;;;11.90;98.60;;;;;;5014290;28;20033;-45
2024/02/08 05:01:38;;;;;;;0.20;0.10;;;11.90;98.60;;;;;;5014704;28;20034;-42
2024/02/08 05:04:04;;;;;;;0.28;0.20;;;11.90;98.70;;;;;;5014754;28;20022;-45
2024/02/08 05:06:30;;;;;;;0.15;0.13;;;11.90;98.70;;;;;;5014251;28;20105;-44
2024/02/08 05:08:59;;;;;;;0.32;0.10;;;11.80;98.70;;;;;;5014092;28;20149;-44
2024/02/08 05:11:28;;;;;;;0.25;0.13;;;11.80;98.70;;;;;;5014143;28;20046;-44
2024/02/08 05:14:00;;;;;;;0.32;0.20;;;11.80;98.80;;;;;;5014555;28;20026;-42
2024/02/08 05:16:27;;;;;;;0.28;0.13;;;11.80;98.80;;;;;;5013864;28;20496;-41
2024/02/08 05:18:53;;;;;;;0.22;0.20;;;11.80;98.90;;;;;;5013788;28;20499;-43
2024/02/08 05:21:19;;;;;;;1.48;0.30;;;11.80;99.20;;;;;;5015038;28;20022;-40
2024/02/08 05:23:47;;;;;;;0.30;0.20;;;11.80;98.90;;;;;;5013941;28;20026;-39
2024/02/08 05:26:18;;;;;;;0.80;0.65;;;11.70;98.90;;;;;;5013711;28;20044;-43
2024/02/08 05:28:45;;;;;;;1.38;1.13;;;11.70;99.00;;;;;;5013887;28;20025;-43
2024/02/08 05:31:12;;;;;;;1.00;0.60;;;11.70;99.00;;;;;;5013693;28;20073;-43
2024/02/08 05:33:40;;;;;;;0.55;0.40;;;11.70;99.00;;;;;;5014050;28;20083;-44
2024/02/08 05:36:12;;;;;;;1.38;0.60;;;11.70;99.10;;;;;;5013903;28;20030;-44
2024/02/08 05:38:41;;;;;;;0.45;0.40;;;11.70;99.10;;;;;;5013479;28;20026;-44
2024/02/08 05:41:09;;;;;;;0.70;0.50;;;11.70;99.10;;;;;;5013714;28;20065;-41
2024/02/08 05:43:44;;;;;;;0.50;0.50;;;11.60;99.10;;;;;;5014061;28;20519;-40
2024/02/08 05:46:28;;;;;;;0.63;0.40;;;11.60;99.20;;;;;;5013575;28;20030;-42
2024/02/08 05:49:04;;;;;;;0.60;0.50;;;11.60;99.20;;;;;;5013730;28;20429;-43
2024/02/08 05:51:31;;;;;;;0.38;0.22;;;11.60;99.60;;;;;;5015638;28;20061;-43
2024/02/08 05:54:01;;;;;;;0.50;0.40;;;11.60;99.30;;;;;;5014722;28;20626;-44
2024/02/08 05:56:30;;;;;;;0.70;0.50;;;11.60;99.30;;;;;;5013253;28;20026;-44
2024/02/08 05:59:01;;;;;;;0.68;0.50;;;11.60;99.40;;;;;;5013386;28;20022;-43
2024/02/08 06:01:32;;;;;;;2.05;0.50;;;11.60;99.40;;;;;;5013257;28;20171;-42
2024/02/08 06:04:02;;;;;;;0.93;0.40;;;11.60;99.40;;;;;;5013263;28;20034;-45
2024/02/08 06:06:33;;;;;;;0.68;0.40;;;11.60;99.50;;;;;;5013033;28;20044;-44
2024/02/08 06:09:08;;;;;;;0.68;0.40;;;11.50;99.50;;;;;;5012945;28;20030;-44
2024/02/08 06:11:37;;;;;;;0.45;0.30;;;11.50;99.50;;;;;;5013524;28;20052;-44
2024/02/08 06:14:12;;;;;;;0.50;0.32;;;11.50;99.50;;;;;;5014058;28;20032;-44
2024/02/08 06:16:48;;;;;;;0.60;0.38;;;11.50;99.60;;;;;;5012767;28;20297;-45
2024/02/08 06:19:15;;;;;;;0.75;0.30;;;11.50;99.60;;;;;;5012907;28;20503;-42
2024/02/08 06:21:57;;;;;;;0.77;0.40;;;11.50;99.70;;;;;;5012938;28;20022;-44
2024/02/08 06:26:58;;;;;;;0.28;0.28;;;11.50;99.70;;;;;;5012880;28;20540;-44
2024/02/08 06:29:42;;;;;;;0.60;0.43;;;11.40;99.70;;;;;;5012619;28;20353;-42
2024/02/08 06:32:23;;;;;;;0.50;0.40;;;11.40;99.70;;;;;;5013171;28;20033;-45
2024/02/08 06:35:25;;;;;;;0.70;0.40;;;11.40;99.80;;;;;;5012145;28;20288;-44
2024/02/08 06:38:00;;;;;;;0.93;0.38;;;11.40;99.80;;;;;;5012389;28;20033;-42
2024/02/08 06:40:50;;;;;;;0.70;0.30;;;11.40;99.90;;;;;;5012718;28;20054;-44
2024/02/08 07:37:46;;;;;;;;;;;11.60;99.90;;;;;;5012809;28;20423;-44
2024/02/08 07:42:52;;;;;;;0.95;0.30;;;11.70;99.90;;;;;;5011575;28;20049;-44
2024/02/08 07:45:26;;;;;;;0.80;0.40;;;11.80;99.90;;;;;;5010647;28;20032;-44
2024/02/08 07:48:08;;;;;;;0.77;0.30;;;11.80;99.90;;;;;;5011383;28;20057;-44
2024/02/08 07:50:37;;;;;;;0.40;0.30;;;11.90;99.90;;;;;;5011927;28;20524;-42
2024/02/08 07:53:08;;;;;;;0.35;0.35;;;11.90;99.90;;;;;;5011493;28;20235;-40
2024/02/08 07:58:07;;;;;;;0.82;0.30;;;12.00;99.90;;;;;;5011225;28;20079;-41
2024/02/08 08:03:08;;;;;;;0.30;0.30;;;12.10;99.90;;;;;;5011195;28;20030;-43
2024/02/08 08:05:44;;;;;;;0.30;0.30;;;12.20;99.90;;;;;;5011273;28;20484;-44
2024/02/08 08:08:28;;;;;;;2.90;0.50;;;12.30;99.80;;;;;;5011291;28;20044;-43
2024/02/08 08:11:02;;;;;;;0.43;0.30;;;12.30;99.70;;;;;;5011446;28;20499;-43
2024/02/08 08:13:50;;;;;;;0.22;0.20;;;12.40;99.70;;;;;;5011217;28;20069;-43
2024/02/08 08:19:07;;;;;;;0.82;0.40;;;12.50;99.50;;;;;;5010991;28;20240;-41
2024/02/08 08:22:03;;;;;;;1.25;0.43;;;12.60;99.40;;;;;;5011194;28;20029;-43
2024/02/08 08:24:28;;;;;;;1.30;0.60;;;12.60;99.30;;;;;;5010760;28;20662;-44
2024/02/08 08:27:47;;;;;;;1.55;0.40;;;12.70;99.20;;;;;;5011077;28;20034;-44
2024/02/08 08:29:58;;;;;;;0.55;0.32;;;12.70;99.10;;;;;;5010314;28;20038;-43
2024/02/08 08:37:44;;;;;;;1.00;0.50;;;12.90;98.80;;;;;;5011068;28;20442;-43
2024/02/08 08:40:20;;;;;;;1.10;0.50;;;13.00;98.70;;;;;;5010763;28;20073;-43
2024/02/08 08:42:50;;;;;;;0.80;0.60;;;13.10;98.60;;;;;;5010982;28;20022;-43
2024/02/08 08:45:18;;;;;;;0.95;0.43;;;13.10;98.50;;;;;;5011802;28;20026;-42
2024/02/08 08:47:51;;;;;;;0.68;0.45;;;13.20;98.50;;;;;;5011189;28;20491;-43
2024/02/08 08:50:20;;;;;;;0.77;0.45;;;13.20;98.30;;;;;;5010850;28;20037;-43
2024/02/08 08:52:49;;;;;;;0.63;0.50;;;13.30;98.30;;;;;;5011349;28;20018;-44
2024/02/08 08:55:18;;;;;;;1.20;0.60;;;13.30;98.30;;;;;;5011319;28;20026;-44
2024/02/08 08:57:53;;;;;;;0.85;0.60;;;13.40;98.30;;;;;;5015955;28;20025;-41
2024/02/08 09:00:32;;;;;;;0.75;0.65;;;13.50;98.30;;;;;;5015724;28;20022;-44
2024/02/08 09:03:04;;;;;;;1.27;0.88;;;13.50;98.30;;;;;;5014426;28;20026;-41
2024/02/08 09:05:36;;;;;;;1.10;0.70;;;13.60;98.30;;;;;;5014219;28;20235;-41
2024/02/08 09:08:09;;;;;;;1.65;0.80;;;13.70;98.30;;;;;;5014541;28;20495;-44
2024/02/08 09:10:40;;;;;;;1.02;0.80;;;13.70;98.20;;;;;;5014625;28;20021;-44
2024/02/08 09:13:09;;;;;;;0.98;0.68;;;13.80;98.10;;;;;;5014064;28;20025;-43
2024/02/08 09:18:19;;;;;;;1.17;0.77;;;13.90;98.00;;;;;;5014716;28;20057;-44
2024/02/08 09:20:44;;;;;;;1.10;0.90;;;13.90;97.80;;;;;;5015048;28;20476;-43
2024/02/08 09:23:13;;;;;;;0.95;0.73;;;14.00;97.70;;;;;;5014415;28;20385;-44
2024/02/08 09:25:48;;;;;;;1.52;0.93;;;14.00;97.60;;;;;;5014850;28;20117;-43
2024/02/08 09:28:26;;;;;;;1.00;0.70;;;14.10;97.60;;;;;;5013790;28;20040;-44
2024/02/08 09:30:57;;;;;;;1.50;1.00;;;14.10;97.40;;;;;;5014391;28;20026;-43
2024/02/08 09:33:35;;;;;;;1.05;0.70;;;14.20;97.40;;;;;;5014820;28;20056;-42
2024/02/08 09:36:03;;;;;;;1.55;0.73;;;14.20;97.30;;;;;;5015076;28;20026;-43
2024/02/08 09:38:42;;;;;;;1.13;0.68;;;14.30;97.20;;;;;;5013480;28;20072;-44
2024/02/08 09:41:15;;;;;;;0.85;0.60;;;14.30;97.10;;;;;;5013783;28;20018;-44
2024/02/08 09:43:48;;;;;;;1.38;0.80;;;14.40;97.10;;;;;;5013628;28;20026;-44
2024/02/08 09:49:00;;;;;;;;;;;14.50;96.90;;;;;;5014276;28;20030;-42
2024/02/08 09:51:35;;;;;;;0.85;0.60;;;14.60;96.80;;;;;;5013903;28;19956;-44
2024/02/08 09:54:15;;;;;;;;;;;14.60;96.70;;;;;;5013997;28;20030;-43
2024/02/08 09:56:50;;;;;;;1.42;0.75;;;14.60;96.60;;;;;;5013358;28;19909;-43
2024/02/08 09:59:40;;;;;;;0.93;0.70;;;14.70;96.60;;;;;;5013193;28;20066;-43
2024/02/08 10:02:20;;;;;;;0.85;0.70;;;14.70;96.50;;;;;;5013098;28;20030;-43
2024/02/08 10:04:50;;;;;;;1.38;0.70;;;14.80;96.40;;;;;;5013692;28;20031;-43
2024/02/08 10:07:19;;;;;;;1.05;0.70;;;14.80;96.30;;;;;;5012536;28;20026;-41
2024/02/08 10:09:53;;;;;;;0.88;0.70;;;14.90;96.20;;;;;;5013271;28;20025;-43
2024/02/08 10:12:20;;;;;;;0.82;0.68;;;14.90;96.10;;;;;;5013296;28;20067;-44
2024/02/08 10:14:54;;;;;;;2.70;0.70;;;15.00;96.10;;;;;;5013719;28;20041;-44
2024/02/08 10:17:42;;;;;;;1.95;0.80;;;15.00;96.00;;;;;;5013151;28;20127;-44
2024/02/08 10:20:32;;;;;;;1.55;0.88;;;15.10;95.90;;;;;;5013375;28;20562;-44
2024/02/08 10:23:00;;;;;;;1.42;0.88;;;15.10;95.80;;;;;;5012649;28;20042;-44
2024/02/08 10:28:25;;;;;;;0.85;0.68;;;15.20;95.70;;;;;;5013164;28;20109;-42
2024/02/08 10:30:54;;;;;;;1.45;0.80;;;15.20;95.60;;;;;;5013028;28;20416;-44
2024/02/08 10:33:24;;;;;;;1.75;0.88;;;15.30;95.60;;;;;;5012732;28;20057;-44
2024/02/08 10:35:53;;;;;;;1.10;0.65;;;15.30;95.50;;;;;;5012647;28;20026;-42
2024/02/08 10:38:29;;;;;;;1.13;0.60;;;15.30;95.50;;;;;;5012350;28;20025;-43
2024/02/08 10:40:57;;;;;;;1.02;0.80;;;15.40;95.40;;;;;;5012447;28;20026;-44
2024/02/08 10:43:25;;;;;;;0.75;0.60;;;15.40;95.40;;;;;;5012756;28;20018;-43
2024/02/08 10:46:02;;;;;;;0.80;0.70;;;15.40;95.40;;;;;;5012971;28;20049;-44
2024/02/08 10:48:29;;;;;;;0.88;0.60;;;15.50;95.40;;;;;;5012243;28;20053;-44
2024/02/08 10:51:08;;;;;;;0.80;0.60;;;15.50;95.30;;;;;;5012552;28;20046;-44
2024/02/08 10:53:48;;;;;;;0.98;0.52;;;15.50;95.20;;;;;;5013342;28;20045;-44
2024/02/08 10:56:16;;;;;;;0.77;0.50;;;15.60;95.20;;;;;;5012761;28;20156;-43
2024/02/08 11:01:37;;;;;;;0.77;0.47;;;15.60;95.10;;;;;;5012630;28;20015;-44
2024/02/08 11:04:20;;;;;;;1.30;0.80;;;15.70;95.10;;;;;;5012100;28;20029;-44
2024/02/08 11:07:06;;;;;;;1.85;0.63;;;15.70;95.00;;;;;;5012145;28;20061;-43
2024/02/08 11:09:35;;;;;;;1.05;0.70;;;15.80;95.00;;;;;;5012059;28;20026;-44
2024/02/08 11:12:21;;;;;;;1.45;0.77;;;15.80;95.00;;;;;;5012794;28;20088;-43
2024/02/08 11:14:56;;;;;;;0.77;0.50;;;15.90;94.90;;;;;;5012008;28;20022;-41
2024/02/08 11:17:27;;;;;;;0.68;0.43;;;15.90;94.80;;;;;;5012298;28;20037;-42
2024/02/08 11:19:56;;;;;;;0.70;0.47;;;16.00;94.80;;;;;;5011804;28;20029;-44
2024/02/08 11:22:43;;;;;;;0.70;0.60;;;16.00;94.70;;;;;;5012004;28;20510;-44
2024/02/08 11:25:36;;;;;;;0.70;0.40;;;16.10;94.60;;;;;;5011964;28;20041;-44
2024/02/08 11:28:13;;;;;;;2.22;0.40;;;16.10;94.50;;;;;;5012156;28;20029;-44
2024/02/08 11:30:39;;;;;;;0.77;0.60;;;16.20;94.50;;;;;;5011814;28;20030;-44
2024/02/08 11:33:12;;;;;;;0.40;0.40;;;16.20;94.50;;;;;;5011693;28;20026;-44
2024/02/08 11:35:54;;;;;;;1.00;0.70;;;16.20;94.40;;;;;;5011652;28;20037;-44
2024/02/08 11:38:30;;;;;;;0.50;0.40;;;16.30;94.40;;;;;;5011482;28;20622;-44
2024/02/08 11:41:06;;;;;;;0.70;0.40;;;16.30;94.30;;;;;;5011522;28;20064;-42
2024/02/08 11:43:32;;;;;;;1.60;0.63;;;16.30;94.30;;;;;;5011479;28;20030;-44
2024/02/08 11:45:57;;;;;;;0.50;0.45;;;16.30;94.30;;;;;;5011664;28;20033;-44
2024/02/08 11:48:27;;;;;;;1.20;0.50;;;16.30;94.30;;;;;;5011788;28;20022;-44
2024/02/08 11:50:58;;;;;;;0.80;0.38;;;16.30;94.30;;;;;;5011821;28;20431;-46
2024/02/08 11:53:31;;;;;;;0.90;0.50;;;16.30;94.20;;;;;;5011435;28;20492;-43
2024/02/08 11:56:10;;;;;;;0.88;0.50;;;16.30;94.20;;;;;;5011524;28;20034;-44
2024/02/08 11:58:48;;;;;;;0.95;0.57;;;16.30;94.20;;;;;;5018662;28;20029;-44
2024/02/08 12:01:15;;;;;;;1.63;0.57;;;16.30;94.20;;;;;;5020972;28;20037;-46
2024/02/08 12:03:42;;;;;;;2.53;0.50;;;16.30;94.40;;;;;;5013466;28;20057;-44
2024/02/08 12:06:22;;;;;;;1.38;0.70;;;16.40;94.60;;;;;;5016129;28;20042;-44
2024/02/08 12:08:58;;;;;;;3.15;1.10;;;16.40;94.70;;;;;;5020154;28;20391;-45
2024/02/08 12:11:29;;;;;;;2.75;0.93;;;16.50;94.80;;;;;;5027442;28;20029;-45
2024/02/08 12:13:56;;;;;;;4.03;0.90;;;16.60;94.80;;;;;;5030911;28;20039;-41
2024/02/08 12:16:25;;;;;;;3.63;1.02;;;16.60;94.80;;;;;;5030724;28;20026;-45
2024/02/08 12:19:05;;;;;;;1.40;0.70;;;16.60;94.80;;;;;;5030645;28;20032;-45
2024/02/08 12:21:35;;;;;;;1.60;0.80;;;16.70;94.80;;;;;;5031061;28;20025;-45
2024/02/08 12:24:01;;;;;;;2.80;0.75;;;16.70;94.80;;;;;;5031025;28;20091;-45
2024/02/08 12:26:31;;;;;;;2.20;0.80;;;16.70;94.80;;;;;;5030900;28;20040;-45
2024/02/08 12:29:02;;;;;;;3.33;0.70;;;16.80;94.80;;;;;;5030680;28;20033;-46
2024/02/08 12:31:32;;;;;;;1.38;0.70;;;16.80;94.80;;;;;;5031917;28;20040;-43
2024/02/08 12:33:59;;;;;;;2.20;0.45;;;16.80;94.90;;;;;;5034661;28;20021;-43
2024/02/08 12:36:28;;;;;;;4.50;0.98;;;16.80;94.90;;;;;;5034706;28;20045;-43
2024/02/08 12:38:56;;;;;;;4.40;0.75;;;16.80;94.90;;;;;;5033132;28;20120;-43
2024/02/08 12:41:21;;;;;;;2.75;0.70;;;16.90;94.90;;;;;;5034407;28;20073;-43
2024/02/08 12:43:54;;;;;;;2.67;0.70;;;16.90;94.80;;;;;;5034880;28;20026;-44
2024/02/08 12:46:20;;;;;;;3.40;0.70;;;16.90;94.70;;;;;;5035011;28;20028;-44
2024/02/08 12:48:49;;;;;;;3.10;0.95;;;16.90;94.70;;;;;;5034620;28;20033;-44
2024/02/08 12:51:19;;;;;;;3.03;0.93;;;17.00;94.70;;;;;;5034856;28;20026;-43
2024/02/08 12:53:45;;;;;;;1.80;0.55;;;17.00;94.60;;;;;;5034237;28;20079;-44
2024/02/08 12:56:10;;;;;;;2.45;0.90;;;17.00;94.60;;;;;;5034098;28;20029;-43
2024/02/08 12:58:36;;;;;;;2.25;0.80;;;17.00;94.50;;;;;;5034410;28;20163;-43
2024/02/08 13:01:07;;;;;;;3.47;1.13;;;17.10;94.50;;;;;;5034205;28;20026;-46
2024/02/08 13:03:36;;;;;;;5.43;0.88;;;17.10;94.40;;;;;;5034353;28;20013;-45
2024/02/08 13:06:03;;;;;;;2.13;0.85;;;17.10;94.30;;;;;;5034087;28;20497;-46
2024/02/08 13:08:33;;;;;;;3.10;0.63;;;17.10;94.30;;;;;;5033911;28;20080;-45
2024/02/08 13:11:00;;;;;;;3.03;0.73;;;17.10;94.20;;;;;;5034037;28;20044;-46
2024/02/08 13:13:27;;;;;;;3.17;0.80;;;17.10;94.20;;;;;;5033993;28;20553;-46
2024/02/08 13:15:58;;;;;;;2.13;0.77;;;17.20;94.10;;;;;;5033866;28;20025;-46
2024/02/08 13:18:26;;;;;;;2.33;0.82;;;17.20;94.10;;;;;;5034229;28;20530;-46
2024/02/08 13:20:52;;;;;;;2.35;0.80;;;17.20;94.10;;;;;;5033608;28;20052;-46
2024/02/08 13:23:17;;;;;;;1.85;0.70;;;17.20;94.00;;;;;;5033868;28;20136;-46
2024/02/08 13:25:43;;;;;;;2.38;0.90;;;17.20;93.90;;;;;;5033752;28;20041;-47
2024/02/08 13:28:11;;;;;;;2.33;0.55;;;17.30;93.90;;;;;;5032242;28;20025;-45
2024/02/08 13:30:38;;;;;;;3.53;0.90;;;17.30;93.90;;;;;;5033950;28;20022;-46
2024/02/08 13:33:05;;;;;;;3.90;0.93;;;17.30;93.80;;;;;;5033936;28;20021;-46
2024/02/08 13:35:39;;;;;;;4.20;0.95;;;17.30;93.80;;;;;;5033380;28;20025;-46
2024/02/08 13:38:05;;;;;;;5.50;0.70;;;17.40;93.70;;;;;;5033402;28;20356;-46
2024/02/08 13:40:31;;;;;;;2.05;0.70;;;17.40;93.70;;;;;;5033364;28;20394;-45
2024/02/08 13:42:58;;;;;;;4.22;1.00;;;17.40;93.60;;;;;;5030655;28;20021;-46
2024/02/08 13:45:25;;;;;;;3.53;0.80;;;17.40;93.60;;;;;;5033367;28;20022;-46
2024/02/08 13:47:54;;;;;;;4.60;0.90;;;17.40;93.60;;;;;;5033467;28;20455;-45
2024/02/08 13:50:22;;;;;;;2.22;0.75;;;17.40;93.50;;;;;;5033222;28;20388;-46
2024/02/08 13:52:52;;;;;;;2.25;0.70;;;17.40;93.50;;;;;;5033221;28;20387;-45
2024/02/08 13:55:19;;;;;;;3.22;0.70;;;17.40;93.50;;;;;;5033103;28;20017;-46
2024/02/08 13:57:50;;;;;;;2.45;0.90;;;17.40;93.50;;;;;;5033120;28;20341;-46
2024/02/08 14:00:20;;;;;;;3.20;1.05;;;17.40;93.50;;;;;;5033055;28;20029;-46
2024/02/08 14:02:56;;;;;;;2.50;0.80;;;17.40;93.50;;;;;;5033168;28;20057;-44
2024/02/08 14:05:23;;;;;;;3.58;1.05;;;17.40;93.50;;;;;;5032867;28;20025;-45
2024/02/08 14:07:52;;;;;;;2.50;0.80;;;17.40;93.50;;;;;;5032986;28;20109;-46
2024/02/08 14:10:27;;;;;;;2.45;1.05;;;17.40;93.50;;;;;;5031653;28;20519;-46
2024/02/08 14:13:00;;;;;;;3.58;1.10;;;17.40;93.50;;;;;;5033123;28;20029;-46
2024/02/08 14:15:29;;;;;;;5.38;0.98;;;17.40;93.40;;;;;;5031397;28;20295;-46
2024/02/08 14:18:10;;;;;;;4.35;0.90;;;17.40;93.40;;;;;;5032679;28;20104;-46
2024/02/08 14:20:43;;;;;;;4.90;1.13;;;17.50;93.40;;;;;;5032968;28;20446;-46
2024/02/08 14:23:10;;;;;;;3.17;1.20;;;17.50;93.40;;;;;;5032892;28;20100;-46
2024/02/08 14:26:00;;;;;;;5.88;0.85;;;17.50;93.40;;;;;;5032271;28;20071;-45
2024/02/08 14:28:26;;;;;;;2.53;0.93;;;17.50;93.40;;;;;;5032571;28;20037;-46
2024/02/08 14:30:52;;;;;;;6.32;1.40;;;17.50;93.40;;;;;;5032365;28;20495;-46
2024/02/08 14:33:19;;;;;;;3.03;1.02;;;17.50;93.30;;;;;;5032545;28;20096;-46
2024/02/08 14:35:47;;;;;;;3.45;1.20;;;17.50;93.30;;;;;;5032245;28;20463;-45
2024/02/08 14:38:14;;;;;;;4.28;0.98;;;17.50;93.30;;;;;;5032541;28;20021;-46
2024/02/08 14:40:42;;;;;;;4.22;1.02;;;17.50;93.30;;;;;;5032474;28;20026;-46
2024/02/08 14:43:08;;;;;;;4.53;0.95;;;17.60;93.30;;;;;;5032357;28;20096;-45
2024/02/08 14:45:38;;;;;;;5.05;1.05;;;17.50;93.20;;;;;;5032148;28;20068;-46
2024/02/08 14:48:10;;;;;;;3.28;0.80;;;17.50;93.20;;;;;;5032031;28;20380;-45
2024/02/08 14:50:51;;;;;;;2.63;0.80;;;17.60;93.20;;;;;;5032089;28;20037;-44
2024/02/08 14:53:17;;;;;;;4.50;0.93;;;17.60;93.20;;;;;;5032125;28;20478;-45
2024/02/08 14:55:45;;;;;;;4.32;1.17;;;17.60;93.10;;;;;;5031548;28;20030;-45
2024/02/08 14:58:32;;;;;;;4.55;1.27;;;17.60;93.10;;;;;;5031897;28;20064;-45
2024/02/08 15:01:11;;;;;;;6.65;1.20;;;17.60;93.00;;;;;;5031980;28;20021;-46
2024/02/08 15:03:38;;;;;;;5.20;1.40;;;17.70;93.00;;;;;;5032119;28;20026;-46
2024/02/08 15:06:06;;;;;;;2.92;1.17;;;17.70;93.00;;;;;;5032498;28;20099;-45
2024/02/08 15:08:46;;;;;;;5.18;1.42;;;17.70;93.00;;;;;;5031931;28;20109;-46
2024/02/08 15:11:38;;;;;;;5.00;1.15;;;17.70;92.90;;;;;;5032762;28;20021;-46
2024/02/08 15:14:04;;;;;;;3.13;1.15;;;17.60;92.90;;;;;;5032683;28;20022;-45